sensor_id;sensor_type;location;lat;lon;timestamp;temperature;humidity
17599;DHT22;8918;52.092;5.232;2023-04-28T00:00:38;10.20;99.90
17599;DHT22;8918;52.092;5.232;2023-04-28T00:03:04;10.20;99.90
17599;DHT22;8918;52.092;5.232;2023-04-28T00:05:29;10.20;99.90
17599;DHT22;8918;52.092;5.232;2023-04-28T00:07:55;10.20;99.90
17599;DHT22;8918;52.092;5.232;2023-04-28T00:10:21;10.20;99.90
17599;DHT22;8918;52.092;5.232;2023-04-28T00:12:46;10.10;99.90
17599;DHT22;8918;52.092;5.232;2023-04-28T00:15:12;10.10;99.90
17599;DHT22;8918;52.092;5.232;2023-04-28T00:17:38;10.10;99.90
17599;DHT22;8918;52.092;5.232;2023-04-28T00:20:04;10.00;99.90
17599;DHT22;8918;52.092;5.232;2023-04-28T00:22:30;10.10;99.90
17599;DHT22;8918;52.092;5.232;2023-04-28T00:24:55;10.00;99.90
17599;DHT22;8918;52.092;5.232;2023-04-28T00:27:21;10.00;99.90
17599;DHT22;8918;52.092;5.232;2023-04-28T00:29:46;10.00;99.90
17599;DHT22;8918;52.092;5.232;2023-04-28T00:32:12;10.00;99.90
17599;DHT22;8918;52.092;5.232;2023-04-28T00:34:38;10.00;99.90
17599;DHT22;8918;52.092;5.232;2023-04-28T00:37:03;10.00;99.90
17599;DHT22;8918;52.092;5.232;2023-04-28T00:39:29;9.90;99.90
17599;DHT22;8918;52.092;5.232;2023-04-28T00:41:55;10.00;99.90
17599;DHT22;8918;52.092;5.232;2023-04-28T00:44:22;9.90;99.90
17599;DHT22;8918;52.092;5.232;2023-04-28T00:46:47;9.90;99.90
17599;DHT22;8918;52.092;5.232;2023-04-28T00:49:15;9.90;99.90
17599;DHT22;8918;52.092;5.232;2023-04-28T00:51:41;9.90;99.90
17599;DHT22;8918;52.092;5.232;2023-04-28T00:54:06;9.90;99.90
17599;DHT22;8918;52.092;5.232;2023-04-28T00:56:33;9.90;99.90
17599;DHT22;8918;52.092;5.232;2023-04-28T00:59:00;9.90;99.90
17599;DHT22;8918;52.092;5.232;2023-04-28T01:01:25;9.90;99.90
17599;DHT22;8918;52.092;5.232;2023-04-28T01:03:51;9.90;99.90
17599;DHT22;8918;52.092;5.232;2023-04-28T01:06:17;9.90;99.90
17599;DHT22;8918;52.092;5.232;2023-04-28T01:08:46;9.90;99.90
17599;DHT22;8918;52.092;5.232;2023-04-28T01:11:12;9.90;99.90
17599;DHT22;8918;52.092;5.232;2023-04-28T01:13:39;9.90;99.90
17599;DHT22;8918;52.092;5.232;2023-04-28T01:16:06;9.90;99.90
17599;DHT22;8918;52.092;5.232;2023-04-28T01:18:32;9.80;99.90
17599;DHT22;8918;52.092;5.232;2023-04-28T01:20:58;9.80;99.90
17599;DHT22;8918;52.092;5.232;2023-04-28T01:23:24;9.90;99.90
17599;DHT22;8918;52.092;5.232;2023-04-28T01:25:50;9.80;99.90
17599;DHT22;8918;52.092;5.232;2023-04-28T01:28:16;9.80;99.90
17599;DHT22;8918;52.092;5.232;2023-04-28T01:30:41;9.80;99.90
17599;DHT22;8918;52.092;5.232;2023-04-28T01:33:07;9.80;99.90
17599;DHT22;8918;52.092;5.232;2023-04-28T01:35:33;9.80;99.90
17599;DHT22;8918;52.092;5.232;2023-04-28T01:37:58;9.80;99.90
17599;DHT22;8918;52.092;5.232;2023-04-28T01:40:24;9.80;99.90
17599;DHT22;8918;52.092;5.232;2023-04-28T01:42:49;9.90;99.90
17599;DHT22;8918;52.092;5.232;2023-04-28T01:45:15;9.90;99.90
17599;DHT22;8918;52.092;5.232;2023-04-28T01:47:41;9.90;99.90
17599;DHT22;8918;52.092;5.232;2023-04-28T01:50:07;9.80;99.90
17599;DHT22;8918;52.092;5.232;2023-04-28T01:52:32;9.80;99.90
17599;DHT22;8918;52.092;5.232;2023-04-28T01:54:58;9.80;99.90
17599;DHT22;8918;52.092;5.232;2023-04-28T01:57:24;9.80;99.90
17599;DHT22;8918;52.092;5.232;2023-04-28T01:59:49;9.80;99.90
17599;DHT22;8918;52.092;5.232;2023-04-28T02:02:15;9.80;99.90
17599;DHT22;8918;52.092;5.232;2023-04-28T02:04:40;9.80;99.90
17599;DHT22;8918;52.092;5.232;2023-04-28T02:07:06;9.80;99.90
17599;DHT22;8918;52.092;5.232;2023-04-28T02:09:32;9.70;99.90
17599;DHT22;8918;52.092;5.232;2023-04-28T02:11:58;9.70;99.90
17599;DHT22;8918;52.092;5.232;2023-04-28T02:14:28;9.70;99.90
17599;DHT22;8918;52.092;5.232;2023-04-28T02:16:53;9.60;99.90
17599;DHT22;8918;52.092;5.232;2023-04-28T02:19:19;9.60;99.90
17599;DHT22;8918;52.092;5.232;2023-04-28T02:21:45;9.60;99.90
17599;DHT22;8918;52.092;5.232;2023-04-28T02:24:10;9.70;99.90
17599;DHT22;8918;52.092;5.232;2023-04-28T02:26:36;9.70;99.90
17599;DHT22;8918;52.092;5.232;2023-04-28T02:29:01;9.60;99.90
17599;DHT22;8918;52.092;5.232;2023-04-28T02:31:30;9.60;99.90
17599;DHT22;8918;52.092;5.232;2023-04-28T02:33:56;9.70;99.90
17599;DHT22;8918;52.092;5.232;2023-04-28T02:36:22;9.70;99.90
17599;DHT22;8918;52.092;5.232;2023-04-28T02:38:47;9.70;99.90
17599;DHT22;8918;52.092;5.232;2023-04-28T02:41:13;9.60;99.90
17599;DHT22;8918;52.092;5.232;2023-04-28T02:43:40;9.60;99.90
17599;DHT22;8918;52.092;5.232;2023-04-28T02:46:06;9.50;99.90
17599;DHT22;8918;52.092;5.232;2023-04-28T02:48:32;9.60;99.90
17599;DHT22;8918;52.092;5.232;2023-04-28T02:51:00;9.60;99.90
17599;DHT22;8918;52.092;5.232;2023-04-28T02:53:25;9.50;99.90
17599;DHT22;8918;52.092;5.232;2023-04-28T02:55:51;9.50;99.90
17599;DHT22;8918;52.092;5.232;2023-04-28T02:58:17;9.50;99.90
17599;DHT22;8918;52.092;5.232;2023-04-28T03:00:42;9.50;99.90
17599;DHT22;8918;52.092;5.232;2023-04-28T03:03:08;9.50;99.90
17599;DHT22;8918;52.092;5.232;2023-04-28T03:05:34;9.50;99.90
17599;DHT22;8918;52.092;5.232;2023-04-28T03:07:59;9.50;99.90
17599;DHT22;8918;52.092;5.232;2023-04-28T03:10:25;9.50;99.90
17599;DHT22;8918;52.092;5.232;2023-04-28T03:12:51;9.50;99.90
17599;DHT22;8918;52.092;5.232;2023-04-28T03:15:16;9.50;99.90
17599;DHT22;8918;52.092;5.232;2023-04-28T03:17:43;9.50;99.90
17599;DHT22;8918;52.092;5.232;2023-04-28T03:20:09;9.40;99.90
17599;DHT22;8918;52.092;5.232;2023-04-28T03:22:35;9.40;99.90
17599;DHT22;8918;52.092;5.232;2023-04-28T03:25:01;9.40;99.90
17599;DHT22;8918;52.092;5.232;2023-04-28T03:27:27;9.40;99.90
17599;DHT22;8918;52.092;5.232;2023-04-28T03:29:52;9.40;99.90
17599;DHT22;8918;52.092;5.232;2023-04-28T03:32:18;9.40;99.90
17599;DHT22;8918;52.092;5.232;2023-04-28T03:34:44;9.40;99.90
17599;DHT22;8918;52.092;5.232;2023-04-28T03:37:09;9.40;99.90
17599;DHT22;8918;52.092;5.232;2023-04-28T03:39:36;9.40;99.90
17599;DHT22;8918;52.092;5.232;2023-04-28T03:42:02;9.40;99.90
17599;DHT22;8918;52.092;5.232;2023-04-28T03:44:27;9.40;99.90
17599;DHT22;8918;52.092;5.232;2023-04-28T03:46:53;9.30;99.90
17599;DHT22;8918;52.092;5.232;2023-04-28T03:49:18;9.30;99.90
17599;DHT22;8918;52.092;5.232;2023-04-28T03:51:44;9.30;99.90
17599;DHT22;8918;52.092;5.232;2023-04-28T03:54:09;9.30;99.90
17599;DHT22;8918;52.092;5.232;2023-04-28T03:56:35;9.40;99.90
17599;DHT22;8918;52.092;5.232;2023-04-28T03:59:01;9.40;99.90
17599;DHT22;8918;52.092;5.232;2023-04-28T04:01:26;9.40;99.90
17599;DHT22;8918;52.092;5.232;2023-04-28T04:03:52;9.40;99.90
17599;DHT22;8918;52.092;5.232;2023-04-28T04:06:17;9.30;99.90
17599;DHT22;8918;52.092;5.232;2023-04-28T04:08:43;9.30;99.90
17599;DHT22;8918;52.092;5.232;2023-04-28T04:11:09;9.30;99.90
17599;DHT22;8918;52.092;5.232;2023-04-28T04:13:35;9.30;99.90
17599;DHT22;8918;52.092;5.232;2023-04-28T04:16:00;9.30;99.90
17599;DHT22;8918;52.092;5.232;2023-04-28T04:18:26;9.40;99.90
17599;DHT22;8918;52.092;5.232;2023-04-28T04:20:52;9.40;99.90
17599;DHT22;8918;52.092;5.232;2023-04-28T04:23:22;9.40;99.90
17599;DHT22;8918;52.092;5.232;2023-04-28T04:25:48;9.30;99.90
17599;DHT22;8918;52.092;5.232;2023-04-28T04:28:13;9.40;99.90
17599;DHT22;8918;52.092;5.232;2023-04-28T04:30:39;9.40;99.90
17599;DHT22;8918;52.092;5.232;2023-04-28T04:33:04;9.40;99.90
17599;DHT22;8918;52.092;5.232;2023-04-28T04:35:30;9.40;99.90
17599;DHT22;8918;52.092;5.232;2023-04-28T04:37:56;9.40;99.90
17599;DHT22;8918;52.092;5.232;2023-04-28T04:40:22;9.40;99.90
17599;DHT22;8918;52.092;5.232;2023-04-28T04:42:47;9.40;99.90
17599;DHT22;8918;52.092;5.232;2023-04-28T04:45:13;9.40;99.90
17599;DHT22;8918;52.092;5.232;2023-04-28T04:47:39;9.40;99.90
17599;DHT22;8918;52.092;5.232;2023-04-28T04:50:05;9.40;99.90
17599;DHT22;8918;52.092;5.232;2023-04-28T04:52:31;9.40;99.90
17599;DHT22;8918;52.092;5.232;2023-04-28T04:54:57;9.40;99.90
17599;DHT22;8918;52.092;5.232;2023-04-28T04:57:22;9.40;99.90
17599;DHT22;8918;52.092;5.232;2023-04-28T04:59:48;9.40;99.90
17599;DHT22;8918;52.092;5.232;2023-04-28T05:02:14;9.40;99.90
17599;DHT22;8918;52.092;5.232;2023-04-28T05:04:39;9.40;99.90
17599;DHT22;8918;52.092;5.232;2023-04-28T05:07:05;9.40;99.90
17599;DHT22;8918;52.092;5.232;2023-04-28T05:09:31;9.40;99.90
17599;DHT22;8918;52.092;5.232;2023-04-28T05:11:57;9.40;99.90
17599;DHT22;8918;52.092;5.232;2023-04-28T05:14:22;9.50;99.90
17599;DHT22;8918;52.092;5.232;2023-04-28T05:16:48;9.50;99.90
17599;DHT22;8918;52.092;5.232;2023-04-28T05:19:14;9.50;99.90
17599;DHT22;8918;52.092;5.232;2023-04-28T05:21:40;9.50;99.90
17599;DHT22;8918;52.092;5.232;2023-04-28T05:24:06;9.50;99.90
17599;DHT22;8918;52.092;5.232;2023-04-28T05:26:31;9.50;99.90
17599;DHT22;8918;52.092;5.232;2023-04-28T05:28:57;9.50;99.90
17599;DHT22;8918;52.092;5.232;2023-04-28T05:31:22;9.50;99.90
17599;DHT22;8918;52.092;5.232;2023-04-28T05:33:48;9.60;99.90
17599;DHT22;8918;52.092;5.232;2023-04-28T05:36:13;9.60;99.90
17599;DHT22;8918;52.092;5.232;2023-04-28T05:38:42;9.70;99.90
17599;DHT22;8918;52.092;5.232;2023-04-28T05:41:07;9.70;99.90
17599;DHT22;8918;52.092;5.232;2023-04-28T05:43:33;9.60;99.90
17599;DHT22;8918;52.092;5.232;2023-04-28T05:45:59;9.60;99.90
17599;DHT22;8918;52.092;5.232;2023-04-28T05:48:25;9.60;99.90
17599;DHT22;8918;52.092;5.232;2023-04-28T05:50:51;9.60;99.90
17599;DHT22;8918;52.092;5.232;2023-04-28T05:53:17;9.60;99.90
17599;DHT22;8918;52.092;5.232;2023-04-28T05:55:42;9.60;99.90
17599;DHT22;8918;52.092;5.232;2023-04-28T05:58:08;9.60;99.90
17599;DHT22;8918;52.092;5.232;2023-04-28T06:00:33;9.60;99.90
17599;DHT22;8918;52.092;5.232;2023-04-28T06:02:59;9.60;99.90
17599;DHT22;8918;52.092;5.232;2023-04-28T06:05:26;9.60;99.90
17599;DHT22;8918;52.092;5.232;2023-04-28T06:07:52;9.70;99.90
17599;DHT22;8918;52.092;5.232;2023-04-28T06:10:18;9.70;99.90
17599;DHT22;8918;52.092;5.232;2023-04-28T06:12:44;9.60;99.90
17599;DHT22;8918;52.092;5.232;2023-04-28T06:15:10;9.70;99.90
17599;DHT22;8918;52.092;5.232;2023-04-28T06:17:37;9.70;99.90
17599;DHT22;8918;52.092;5.232;2023-04-28T06:20:03;9.70;99.90
17599;DHT22;8918;52.092;5.232;2023-04-28T06:22:29;9.70;99.90
17599;DHT22;8918;52.092;5.232;2023-04-28T06:24:55;9.70;99.90
17599;DHT22;8918;52.092;5.232;2023-04-28T06:27:20;9.70;99.90
17599;DHT22;8918;52.092;5.232;2023-04-28T06:29:46;9.70;99.90
17599;DHT22;8918;52.092;5.232;2023-04-28T06:32:11;9.70;99.90
17599;DHT22;8918;52.092;5.232;2023-04-28T06:34:37;9.70;99.90
17599;DHT22;8918;52.092;5.232;2023-04-28T06:37:02;9.70;99.90
17599;DHT22;8918;52.092;5.232;2023-04-28T06:39:28;9.80;99.90
17599;DHT22;8918;52.092;5.232;2023-04-28T06:41:54;9.90;99.90
17599;DHT22;8918;52.092;5.232;2023-04-28T06:44:19;9.90;99.90
17599;DHT22;8918;52.092;5.232;2023-04-28T06:46:45;10.00;99.90
17599;DHT22;8918;52.092;5.232;2023-04-28T06:49:11;10.00;99.90
17599;DHT22;8918;52.092;5.232;2023-04-28T06:51:36;10.10;99.90
17599;DHT22;8918;52.092;5.232;2023-04-28T06:54:02;10.10;99.90
17599;DHT22;8918;52.092;5.232;2023-04-28T06:56:28;10.10;99.90
17599;DHT22;8918;52.092;5.232;2023-04-28T06:58:54;10.20;99.90
17599;DHT22;8918;52.092;5.232;2023-04-28T07:01:21;10.20;99.90
17599;DHT22;8918;52.092;5.232;2023-04-28T07:03:47;10.30;99.90
17599;DHT22;8918;52.092;5.232;2023-04-28T07:06:12;10.50;99.90
17599;DHT22;8918;52.092;5.232;2023-04-28T07:08:38;10.60;99.90
17599;DHT22;8918;52.092;5.232;2023-04-28T07:11:04;10.70;99.90
17599;DHT22;8918;52.092;5.232;2023-04-28T07:13:31;10.80;99.90
17599;DHT22;8918;52.092;5.232;2023-04-28T07:15:57;10.80;99.90
17599;DHT22;8918;52.092;5.232;2023-04-28T07:18:22;10.90;99.90
17599;DHT22;8918;52.092;5.232;2023-04-28T07:20:48;11.00;99.90
17599;DHT22;8918;52.092;5.232;2023-04-28T07:23:14;11.10;99.90
17599;DHT22;8918;52.092;5.232;2023-04-28T07:25:40;11.10;99.90
17599;DHT22;8918;52.092;5.232;2023-04-28T07:28:06;11.20;99.90
17599;DHT22;8918;52.092;5.232;2023-04-28T07:30:32;11.20;99.90
17599;DHT22;8918;52.092;5.232;2023-04-28T07:32:58;11.30;99.90
17599;DHT22;8918;52.092;5.232;2023-04-28T07:35:24;11.30;99.90
17599;DHT22;8918;52.092;5.232;2023-04-28T07:37:50;11.40;99.90
17599;DHT22;8918;52.092;5.232;2023-04-28T07:40:16;11.50;99.90
17599;DHT22;8918;52.092;5.232;2023-04-28T07:42:41;11.60;99.90
17599;DHT22;8918;52.092;5.232;2023-04-28T07:45:07;11.60;99.90
17599;DHT22;8918;52.092;5.232;2023-04-28T07:47:33;11.60;99.90
17599;DHT22;8918;52.092;5.232;2023-04-28T07:49:59;11.70;99.90
17599;DHT22;8918;52.092;5.232;2023-04-28T07:52:29;11.70;99.90
17599;DHT22;8918;52.092;5.232;2023-04-28T07:54:54;11.70;99.90
17599;DHT22;8918;52.092;5.232;2023-04-28T07:57:20;11.70;99.90
17599;DHT22;8918;52.092;5.232;2023-04-28T07:59:46;11.80;99.90
17599;DHT22;8918;52.092;5.232;2023-04-28T08:02:11;11.70;99.90
17599;DHT22;8918;52.092;5.232;2023-04-28T08:04:40;11.80;99.90
17599;DHT22;8918;52.092;5.232;2023-04-28T08:07:06;11.80;99.90
17599;DHT22;8918;52.092;5.232;2023-04-28T08:09:32;11.90;99.90
17599;DHT22;8918;52.092;5.232;2023-04-28T08:11:59;11.80;99.90
17599;DHT22;8918;52.092;5.232;2023-04-28T08:14:25;11.70;99.90
17599;DHT22;8918;52.092;5.232;2023-04-28T08:16:50;11.70;99.90
17599;DHT22;8918;52.092;5.232;2023-04-28T08:19:16;11.60;99.90
17599;DHT22;8918;52.092;5.232;2023-04-28T08:21:41;11.60;99.90
17599;DHT22;8918;52.092;5.232;2023-04-28T08:24:07;11.60;99.90
17599;DHT22;8918;52.092;5.232;2023-04-28T08:26:35;11.70;99.90
17599;DHT22;8918;52.092;5.232;2023-04-28T08:29:01;11.80;99.90
17599;DHT22;8918;52.092;5.232;2023-04-28T08:31:27;12.00;99.90
17599;DHT22;8918;52.092;5.232;2023-04-28T08:33:53;12.20;99.90
17599;DHT22;8918;52.092;5.232;2023-04-28T08:36:18;12.40;99.90
17599;DHT22;8918;52.092;5.232;2023-04-28T08:38:44;12.40;99.90
17599;DHT22;8918;52.092;5.232;2023-04-28T08:41:12;12.50;99.90
17599;DHT22;8918;52.092;5.232;2023-04-28T08:43:39;12.70;99.90
17599;DHT22;8918;52.092;5.232;2023-04-28T08:46:08;12.60;99.90
17599;DHT22;8918;52.092;5.232;2023-04-28T08:48:42;12.50;99.90
17599;DHT22;8918;52.092;5.232;2023-04-28T08:51:37;12.40;99.90
17599;DHT22;8918;52.092;5.232;2023-04-28T08:54:03;12.40;99.90
17599;DHT22;8918;52.092;5.232;2023-04-28T08:56:31;12.40;99.90
17599;DHT22;8918;52.092;5.232;2023-04-28T08:59:02;12.40;99.90
17599;DHT22;8918;52.092;5.232;2023-04-28T09:01:29;12.30;99.90
17599;DHT22;8918;52.092;5.232;2023-04-28T09:03:55;12.30;99.90
17599;DHT22;8918;52.092;5.232;2023-04-28T09:06:21;12.30;99.90
17599;DHT22;8918;52.092;5.232;2023-04-28T09:08:47;12.30;99.90
17599;DHT22;8918;52.092;5.232;2023-04-28T09:11:13;12.20;99.90
17599;DHT22;8918;52.092;5.232;2023-04-28T09:13:39;12.20;99.90
17599;DHT22;8918;52.092;5.232;2023-04-28T09:16:06;12.20;99.90
17599;DHT22;8918;52.092;5.232;2023-04-28T09:18:32;12.20;99.90
17599;DHT22;8918;52.092;5.232;2023-04-28T09:21:09;12.30;99.90
17599;DHT22;8918;52.092;5.232;2023-04-28T09:23:55;12.40;99.90
17599;DHT22;8918;52.092;5.232;2023-04-28T09:26:21;12.40;99.90
17599;DHT22;8918;52.092;5.232;2023-04-28T09:28:47;12.40;99.90
17599;DHT22;8918;52.092;5.232;2023-04-28T09:31:23;12.50;99.90
17599;DHT22;8918;52.092;5.232;2023-04-28T09:33:56;12.50;99.90
17599;DHT22;8918;52.092;5.232;2023-04-28T09:36:28;12.60;99.90
17599;DHT22;8918;52.092;5.232;2023-04-28T09:38:58;12.60;99.90
17599;DHT22;8918;52.092;5.232;2023-04-28T09:41:44;12.60;99.90
17599;DHT22;8918;52.092;5.232;2023-04-28T09:44:17;12.60;99.90
17599;DHT22;8918;52.092;5.232;2023-04-28T09:46:43;12.70;99.90
17599;DHT22;8918;52.092;5.232;2023-04-28T09:49:12;12.70;99.90
17599;DHT22;8918;52.092;5.232;2023-04-28T09:51:39;12.80;99.90
17599;DHT22;8918;52.092;5.232;2023-04-28T09:54:05;12.80;99.90
17599;DHT22;8918;52.092;5.232;2023-04-28T09:56:32;12.90;99.90
17599;DHT22;8918;52.092;5.232;2023-04-28T09:58:59;12.90;99.90
17599;DHT22;8918;52.092;5.232;2023-04-28T10:01:36;12.90;99.90
17599;DHT22;8918;52.092;5.232;2023-04-28T10:04:03;12.90;99.90
17599;DHT22;8918;52.092;5.232;2023-04-28T10:06:33;12.90;99.90
17599;DHT22;8918;52.092;5.232;2023-04-28T10:09:00;12.90;99.90
17599;DHT22;8918;52.092;5.232;2023-04-28T10:11:26;12.90;99.90
17599;DHT22;8918;52.092;5.232;2023-04-28T10:13:53;12.90;99.90
17599;DHT22;8918;52.092;5.232;2023-04-28T10:16:19;12.80;99.90
17599;DHT22;8918;52.092;5.232;2023-04-28T10:18:45;12.80;99.90
17599;DHT22;8918;52.092;5.232;2023-04-28T10:21:13;12.80;99.90
17599;DHT22;8918;52.092;5.232;2023-04-28T10:24:08;12.80;99.90
17599;DHT22;8918;52.092;5.232;2023-04-28T10:27:01;12.80;99.90
17599;DHT22;8918;52.092;5.232;2023-04-28T10:29:29;12.80;99.90
17599;DHT22;8918;52.092;5.232;2023-04-28T10:32:23;12.80;99.90
17599;DHT22;8918;52.092;5.232;2023-04-28T10:38:04;12.90;99.90
17599;DHT22;8918;52.092;5.232;2023-04-28T10:40:31;12.90;99.90
17599;DHT22;8918;52.092;5.232;2023-04-28T10:42:57;12.90;99.90
17599;DHT22;8918;52.092;5.232;2023-04-28T10:48:13;13.00;99.90
17599;DHT22;8918;52.092;5.232;2023-04-28T10:56:29;13.20;99.90
17599;DHT22;8918;52.092;5.232;2023-04-28T10:58:55;13.20;99.90
17599;DHT22;8918;52.092;5.232;2023-04-28T11:03:50;13.20;99.90
17599;DHT22;8918;52.092;5.232;2023-04-28T11:06:26;13.20;99.90
17599;DHT22;8918;52.092;5.232;2023-04-28T11:08:57;13.30;99.90
17599;DHT22;8918;52.092;5.232;2023-04-28T11:11:27;13.30;99.90
17599;DHT22;8918;52.092;5.232;2023-04-28T11:13:54;13.40;99.90
17599;DHT22;8918;52.092;5.232;2023-04-28T11:16:22;13.50;99.90
17599;DHT22;8918;52.092;5.232;2023-04-28T11:21:18;13.50;99.90
17599;DHT22;8918;52.092;5.232;2023-04-28T11:23:44;13.50;99.90
17599;DHT22;8918;52.092;5.232;2023-04-28T11:26:10;13.50;99.90
17599;DHT22;8918;52.092;5.232;2023-04-28T11:28:41;13.60;99.90
17599;DHT22;8918;52.092;5.232;2023-04-28T11:31:12;13.70;99.90
17599;DHT22;8918;52.092;5.232;2023-04-28T11:33:38;13.80;99.90
17599;DHT22;8918;52.092;5.232;2023-04-28T11:36:04;13.80;99.90
17599;DHT22;8918;52.092;5.232;2023-04-28T11:38:42;13.90;99.90
17599;DHT22;8918;52.092;5.232;2023-04-28T11:41:08;13.90;99.90
17599;DHT22;8918;52.092;5.232;2023-04-28T11:43:34;13.90;99.90
17599;DHT22;8918;52.092;5.232;2023-04-28T11:46:00;13.90;99.90
17599;DHT22;8918;52.092;5.232;2023-04-28T11:48:26;13.90;99.90
17599;DHT22;8918;52.092;5.232;2023-04-28T11:50:51;13.90;99.90
17599;DHT22;8918;52.092;5.232;2023-04-28T11:53:18;14.00;99.90
17599;DHT22;8918;52.092;5.232;2023-04-28T11:55:44;14.00;99.90
17599;DHT22;8918;52.092;5.232;2023-04-28T11:58:19;14.00;99.90
17599;DHT22;8918;52.092;5.232;2023-04-28T12:01:11;14.10;99.90
17599;DHT22;8918;52.092;5.232;2023-04-28T12:03:47;14.20;99.90
17599;DHT22;8918;52.092;5.232;2023-04-28T12:06:18;14.30;99.90
17599;DHT22;8918;52.092;5.232;2023-04-28T12:08:44;14.40;99.90
17599;DHT22;8918;52.092;5.232;2023-04-28T12:11:13;14.40;99.90
17599;DHT22;8918;52.092;5.232;2023-04-28T12:13:40;14.30;99.90
17599;DHT22;8918;52.092;5.232;2023-04-28T12:16:07;14.30;99.90
17599;DHT22;8918;52.092;5.232;2023-04-28T12:18:36;14.20;99.90
17599;DHT22;8918;52.092;5.232;2023-04-28T12:21:03;13.90;99.90
17599;DHT22;8918;52.092;5.232;2023-04-28T12:23:34;13.90;99.90
17599;DHT22;8918;52.092;5.232;2023-04-28T12:26:01;14.00;99.90
17599;DHT22;8918;52.092;5.232;2023-04-28T12:28:39;14.00;99.90
17599;DHT22;8918;52.092;5.232;2023-04-28T12:31:07;14.10;99.90
17599;DHT22;8918;52.092;5.232;2023-04-28T12:33:34;14.20;99.90
17599;DHT22;8918;52.092;5.232;2023-04-28T12:36:03;14.30;99.90
17599;DHT22;8918;52.092;5.232;2023-04-28T12:38:29;14.30;99.90
17599;DHT22;8918;52.092;5.232;2023-04-28T12:40:55;14.30;99.90
17599;DHT22;8918;52.092;5.232;2023-04-28T12:43:22;14.30;99.90
17599;DHT22;8918;52.092;5.232;2023-04-28T12:45:52;14.30;99.90
17599;DHT22;8918;52.092;5.232;2023-04-28T12:48:19;14.30;99.90
17599;DHT22;8918;52.092;5.232;2023-04-28T12:50:44;14.30;99.90
17599;DHT22;8918;52.092;5.232;2023-04-28T12:53:10;14.10;99.90
17599;DHT22;8918;52.092;5.232;2023-04-28T12:55:36;14.30;99.90
17599;DHT22;8918;52.092;5.232;2023-04-28T12:58:05;14.30;99.90
17599;DHT22;8918;52.092;5.232;2023-04-28T13:00:31;14.20;99.90
17599;DHT22;8918;52.092;5.232;2023-04-28T13:02:57;14.20;99.90
17599;DHT22;8918;52.092;5.232;2023-04-28T13:05:22;14.30;99.90
17599;DHT22;8918;52.092;5.232;2023-04-28T13:07:48;14.30;99.90
17599;DHT22;8918;52.092;5.232;2023-04-28T13:10:15;14.30;99.90
17599;DHT22;8918;52.092;5.232;2023-04-28T13:12:41;14.30;99.90
17599;DHT22;8918;52.092;5.232;2023-04-28T13:15:07;14.30;99.90
17599;DHT22;8918;52.092;5.232;2023-04-28T13:17:33;14.40;99.90
17599;DHT22;8918;52.092;5.232;2023-04-28T13:19:59;14.40;99.90
17599;DHT22;8918;52.092;5.232;2023-04-28T13:22:26;14.40;99.90
17599;DHT22;8918;52.092;5.232;2023-04-28T13:24:51;14.30;99.90
17599;DHT22;8918;52.092;5.232;2023-04-28T13:27:17;14.20;99.90
17599;DHT22;8918;52.092;5.232;2023-04-28T13:29:43;14.20;99.90
17599;DHT22;8918;52.092;5.232;2023-04-28T13:32:08;14.20;99.90
17599;DHT22;8918;52.092;5.232;2023-04-28T13:34:34;14.20;99.90
17599;DHT22;8918;52.092;5.232;2023-04-28T13:37:02;14.30;99.90
17599;DHT22;8918;52.092;5.232;2023-04-28T13:39:28;14.30;99.90
17599;DHT22;8918;52.092;5.232;2023-04-28T13:41:53;14.30;99.90
17599;DHT22;8918;52.092;5.232;2023-04-28T13:44:19;14.20;99.90
17599;DHT22;8918;52.092;5.232;2023-04-28T13:46:45;14.20;99.90
17599;DHT22;8918;52.092;5.232;2023-04-28T13:49:11;14.20;99.90
17599;DHT22;8918;52.092;5.232;2023-04-28T13:51:37;14.20;99.90
17599;DHT22;8918;52.092;5.232;2023-04-28T13:54:04;14.00;99.90
17599;DHT22;8918;52.092;5.232;2023-04-28T13:56:33;13.80;99.90
17599;DHT22;8918;52.092;5.232;2023-04-28T13:58:58;13.70;99.90
17599;DHT22;8918;52.092;5.232;2023-04-28T14:01:24;13.70;99.90
17599;DHT22;8918;52.092;5.232;2023-04-28T14:03:50;13.70;99.90
17599;DHT22;8918;52.092;5.232;2023-04-28T14:06:16;13.80;99.90
17599;DHT22;8918;52.092;5.232;2023-04-28T14:08:42;13.60;99.90
17599;DHT22;8918;52.092;5.232;2023-04-28T14:11:07;13.60;99.90
17599;DHT22;8918;52.092;5.232;2023-04-28T14:13:34;13.70;99.90
17599;DHT22;8918;52.092;5.232;2023-04-28T14:16:00;13.70;99.90
17599;DHT22;8918;52.092;5.232;2023-04-28T14:18:26;13.70;99.90
17599;DHT22;8918;52.092;5.232;2023-04-28T14:20:52;13.60;99.90
17599;DHT22;8918;52.092;5.232;2023-04-28T14:23:18;13.60;99.90
17599;DHT22;8918;52.092;5.232;2023-04-28T14:25:44;13.60;99.90
17599;DHT22;8918;52.092;5.232;2023-04-28T14:28:11;13.60;99.90
17599;DHT22;8918;52.092;5.232;2023-04-28T14:30:36;13.60;99.90
17599;DHT22;8918;52.092;5.232;2023-04-28T14:33:02;13.60;99.90
17599;DHT22;8918;52.092;5.232;2023-04-28T14:35:27;13.60;99.90
17599;DHT22;8918;52.092;5.232;2023-04-28T14:37:54;13.70;99.90
17599;DHT22;8918;52.092;5.232;2023-04-28T14:40:21;13.60;99.90
17599;DHT22;8918;52.092;5.232;2023-04-28T14:42:46;13.60;99.90
17599;DHT22;8918;52.092;5.232;2023-04-28T14:45:12;13.50;99.90
17599;DHT22;8918;52.092;5.232;2023-04-28T14:47:38;13.60;99.90
17599;DHT22;8918;52.092;5.232;2023-04-28T14:50:05;13.60;99.90
17599;DHT22;8918;52.092;5.232;2023-04-28T14:52:30;13.60;99.90
17599;DHT22;8918;52.092;5.232;2023-04-28T14:54:58;13.60;99.90
17599;DHT22;8918;52.092;5.232;2023-04-28T14:57:24;13.60;99.90
17599;DHT22;8918;52.092;5.232;2023-04-28T14:59:50;13.60;99.90
17599;DHT22;8918;52.092;5.232;2023-04-28T15:02:20;13.60;99.90
17599;DHT22;8918;52.092;5.232;2023-04-28T15:04:53;13.60;99.90
17599;DHT22;8918;52.092;5.232;2023-04-28T15:07:19;13.50;99.90
17599;DHT22;8918;52.092;5.232;2023-04-28T15:09:48;13.40;99.90
17599;DHT22;8918;52.092;5.232;2023-04-28T15:12:14;13.40;99.90
17599;DHT22;8918;52.092;5.232;2023-04-28T15:14:40;13.40;99.90
17599;DHT22;8918;52.092;5.232;2023-04-28T15:17:06;13.40;99.90
17599;DHT22;8918;52.092;5.232;2023-04-28T15:19:32;13.40;99.90
17599;DHT22;8918;52.092;5.232;2023-04-28T15:21:58;13.40;99.90
17599;DHT22;8918;52.092;5.232;2023-04-28T15:24:24;13.50;99.90
17599;DHT22;8918;52.092;5.232;2023-04-28T15:26:49;13.40;99.90
17599;DHT22;8918;52.092;5.232;2023-04-28T15:29:15;13.40;99.90
17599;DHT22;8918;52.092;5.232;2023-04-28T15:31:41;13.40;99.90
17599;DHT22;8918;52.092;5.232;2023-04-28T15:34:07;13.40;99.90
17599;DHT22;8918;52.092;5.232;2023-04-28T15:36:37;13.40;99.90
17599;DHT22;8918;52.092;5.232;2023-04-28T15:39:06;13.30;99.90
17599;DHT22;8918;52.092;5.232;2023-04-28T15:41:33;13.30;99.90
17599;DHT22;8918;52.092;5.232;2023-04-28T15:43:59;13.30;99.90
17599;DHT22;8918;52.092;5.232;2023-04-28T15:46:26;13.20;99.90
17599;DHT22;8918;52.092;5.232;2023-04-28T15:48:51;13.20;99.90
17599;DHT22;8918;52.092;5.232;2023-04-28T15:51:17;13.30;99.90
17599;DHT22;8918;52.092;5.232;2023-04-28T15:53:42;13.20;99.90
17599;DHT22;8918;52.092;5.232;2023-04-28T15:56:08;13.20;99.90
17599;DHT22;8918;52.092;5.232;2023-04-28T15:58:34;13.30;99.90
17599;DHT22;8918;52.092;5.232;2023-04-28T16:00:59;13.30;99.90
17599;DHT22;8918;52.092;5.232;2023-04-28T16:03:25;13.30;99.90
17599;DHT22;8918;52.092;5.232;2023-04-28T16:05:54;13.20;99.90